Aviation Digital Data Service (ADDS)

Output produced by METARs form (1949 UTC 06 December 2016)
found at http://aviationweather.gov/adds/metars/
 
KHPN 061936Z 0620/0718 10006KT P6SM FEW035 BKN100 OVC200 
     FM062300 09006KT 5SM -RA BKN030 OVC070 
     FM070100 08006KT 3SM -RA BR BKN012 OVC020 
     FM070500 06004KT 2SM -RADZ BR BKN007 OVC012 
     FM071200 06006KT 3SM -DZ BR BKN007 OVC010 
     FM071700 VRB05KT 6SM BR BKN010 OVC025 AMD NOT SKED